Time;durP1;ratioP1;P1;durP2;ratioP2;P2;SDS_P1;SDS_P2;PMS_P1;PMS_P2;Temp;Humidity;BMP_temperature;BMP_pressure;BME280_temperature;BME280_humidity;BME280_pressure;Samples;Min_cycle;Max_cycle;Signal;HPM_P1;HPM_P2
2021/09/12 00:00:06;;;;;;;9.77;8.27;;;15.00;99.90;;;;;;5054807;28;20406;-78
2021/09/12 00:02:32;;;;;;;9.45;8.40;;;15.10;99.90;;;;;;5052836;28;20028;-76
2021/09/12 00:04:58;;;;;;;10.52;8.40;;;15.10;99.90;;;;;;5051965;28;20493;-77
2021/09/12 00:07:23;;;;;;;9.68;8.23;;;15.10;99.90;;;;;;5052184;28;20036;-77
2021/09/12 00:09:49;;;;;;;11.85;9.32;;;15.10;99.90;;;;;;5051649;28;20021;-77
2021/09/12 00:12:15;;;;;;;15.18;10.05;;;15.00;99.90;;;;;;5051298;28;20043;-77
2021/09/12 00:14:41;;;;;;;15.32;9.98;;;15.00;99.90;;;;;;5051938;28;20098;-77
2021/09/12 00:17:06;;;;;;;11.18;8.40;;;14.90;99.90;;;;;;5059550;28;20029;-77
2021/09/12 00:19:32;;;;;;;11.95;9.52;;;14.70;99.90;;;;;;5057031;28;20361;-77
2021/09/12 00:21:58;;;;;;;10.15;8.73;;;14.60;99.90;;;;;;5058561;28;20550;-77
2021/09/12 00:24:24;;;;;;;11.70;9.35;;;14.70;99.90;;;;;;5057550;28;20045;-77
2021/09/12 00:26:50;;;;;;;15.48;10.30;;;14.70;99.90;;;;;;5052912;28;20040;-78
2021/09/12 00:29:16;;;;;;;13.50;9.52;;;14.70;99.90;;;;;;5052569;28;20035;-77
2021/09/12 00:31:42;;;;;;;13.98;9.75;;;14.50;99.90;;;;;;5051599;28;20562;-77
2021/09/12 00:34:08;;;;;;;16.48;10.68;;;14.50;99.90;;;;;;5052605;28;20053;-77
2021/09/12 00:36:34;;;;;;;15.63;11.98;;;14.50;99.90;;;;;;5051565;28;20066;-76
2021/09/12 00:39:00;;;;;;;15.52;10.60;;;14.40;99.90;;;;;;5050935;28;20029;-75
2021/09/12 00:41:25;;;;;;;12.27;10.77;;;14.40;99.90;;;;;;5051290;28;20033;-74
2021/09/12 00:43:51;;;;;;;14.50;11.15;;;14.40;99.90;;;;;;5051485;28;20104;-76
2021/09/12 00:46:17;;;;;;;28.98;12.15;;;14.30;99.90;;;;;;5050867;28;20021;-76
2021/09/12 00:48:42;;;;;;;15.38;11.45;;;14.30;99.90;;;;;;5050002;28;20395;-76
2021/09/12 00:51:08;;;;;;;16.42;11.77;;;14.30;99.90;;;;;;5050321;28;20021;-76
2021/09/12 00:53:37;;;;;;;23.08;13.20;;;14.30;99.90;;;;;;5051447;28;20044;-75
2021/09/12 00:56:04;;;;;;;18.73;12.93;;;14.20;99.90;;;;;;5051019;28;20036;-76
2021/09/12 00:58:33;;;;;;;15.57;11.40;;;14.20;99.90;;;;;;5050754;28;20051;-75
2021/09/12 01:00:58;;;;;;;15.38;12.23;;;14.20;99.90;;;;;;5050739;28;20099;-75
2021/09/12 01:03:24;;;;;;;11.98;10.35;;;14.20;99.90;;;;;;5051385;28;20682;-73
2021/09/12 01:05:50;;;;;;;15.55;10.93;;;14.20;99.90;;;;;;5050794;28;20162;-76
2021/09/12 01:08:17;;;;;;;13.63;11.40;;;14.10;99.90;;;;;;5051293;28;20021;-75
2021/09/12 01:10:42;;;;;;;14.80;10.35;;;14.20;99.90;;;;;;5053447;28;20024;-75
2021/09/12 01:13:08;;;;;;;12.55;10.48;;;14.20;99.90;;;;;;5058380;28;20078;-75
2021/09/12 01:15:34;;;;;;;14.23;10.20;;;14.20;99.90;;;;;;5050773;28;20029;-76
2021/09/12 01:18:00;;;;;;;15.32;10.77;;;14.10;99.90;;;;;;5050297;28;20076;-76
2021/09/12 01:20:26;;;;;;;14.55;9.38;;;14.10;99.90;;;;;;5054496;28;20391;-75
2021/09/12 01:22:52;;;;;;;9.73;8.35;;;13.90;99.90;;;;;;5053681;28;20024;-76
2021/09/12 01:25:18;;;;;;;12.38;10.05;;;13.90;99.90;;;;;;5053498;28;20093;-76
2021/09/12 01:27:44;;;;;;;10.48;9.23;;;13.90;99.90;;;;;;5053964;28;20025;-76
2021/09/12 01:30:11;;;;;;;12.85;9.55;;;13.90;99.90;;;;;;5053929;28;20116;-77
2021/09/12 01:32:37;;;;;;;21.20;12.00;;;13.90;99.90;;;;;;5055104;28;20441;-74
2021/09/12 01:35:04;;;;;;;12.40;11.10;;;13.90;99.90;;;;;;5054513;28;20033;-75
2021/09/12 01:37:31;;;;;;;26.23;12.65;;;13.80;99.90;;;;;;5053559;28;20025;-77
2021/09/12 01:39:57;;;;;;;14.13;10.90;;;13.80;99.90;;;;;;5054795;28;20029;-73
2021/09/12 01:42:22;;;;;;;25.30;12.88;;;13.70;99.90;;;;;;5054960;28;20032;-72
2021/09/12 01:44:50;;;;;;;29.23;13.18;;;13.80;99.90;;;;;;5054406;28;20039;-73
2021/09/12 01:47:16;;;;;;;22.80;14.30;;;13.90;99.90;;;;;;5054827;28;20025;-74
2021/09/12 01:49:43;;;;;;;24.95;13.70;;;14.10;99.90;;;;;;5053641;28;20120;-74
2021/09/12 01:52:13;;;;;;;21.55;13.95;;;14.20;99.90;;;;;;5054475;28;20056;-73
2021/09/12 01:54:39;;;;;;;18.73;11.73;;;14.10;99.90;;;;;;5053717;28;20021;-73
2021/09/12 01:57:06;;;;;;;8.80;7.90;;;14.10;99.90;;;;;;5054482;28;20048;-74
2021/09/12 01:59:33;;;;;;;8.57;7.10;;;13.90;99.90;;;;;;5053997;28;20075;-74
2021/09/12 02:01:58;;;;;;;10.52;7.80;;;13.90;99.90;;;;;;5054403;28;20024;-73
2021/09/12 02:04:24;;;;;;;15.82;9.30;;;13.90;99.90;;;;;;5053965;28;20022;-74
2021/09/12 02:06:49;;;;;;;19.52;11.10;;;14.10;99.90;;;;;;5054293;28;20109;-75
2021/09/12 02:09:15;;;;;;;17.48;11.10;;;14.30;99.90;;;;;;5053904;28;20459;-73
2021/09/12 02:11:41;;;;;;;16.73;9.80;;;14.30;99.90;;;;;;5054257;28;20033;-74
2021/09/12 02:14:06;;;;;;;14.95;10.20;;;14.40;99.90;;;;;;5052869;28;20020;-74
2021/09/12 02:16:32;;;;;;;15.68;9.82;;;14.40;99.90;;;;;;5053544;28;20059;-75
2021/09/12 02:18:58;;;;;;;12.52;9.70;;;14.30;99.90;;;;;;5053783;28;20052;-74
2021/09/12 02:21:23;;;;;;;11.63;10.20;;;14.20;99.90;;;;;;5052838;28;20025;-73
2021/09/12 02:23:49;;;;;;;13.90;10.60;;;14.20;99.90;;;;;;5054094;28;20021;-74
2021/09/12 02:26:15;;;;;;;10.48;9.38;;;14.00;99.90;;;;;;5052334;28;20241;-73
2021/09/12 02:28:41;;;;;;;30.55;9.93;;;13.90;99.90;;;;;;5051777;28;20017;-73
2021/09/12 02:31:06;;;;;;;22.55;10.10;;;13.90;99.90;;;;;;5051696;28;20035;-74
2021/09/12 02:33:32;;;;;;;20.13;8.45;;;13.80;99.90;;;;;;5051712;28;20025;-73
2021/09/12 02:35:58;;;;;;;15.40;9.70;;;13.70;99.90;;;;;;5052919;28;20422;-73
2021/09/12 02:38:23;;;;;;;48.83;9.52;;;13.70;99.90;;;;;;5052928;28;20025;-73
2021/09/12 02:40:49;;;;;;;15.93;9.70;;;13.60;99.90;;;;;;5053649;28;20378;-74
2021/09/12 02:43:15;;;;;;;29.00;11.27;;;13.60;99.90;;;;;;5053621;28;20445;-75
2021/09/12 02:45:40;;;;;;;16.48;9.05;;;13.80;99.90;;;;;;5051977;28;20025;-73
2021/09/12 02:48:06;;;;;;;10.43;8.85;;;14.00;99.90;;;;;;5053926;28;20021;-75
2021/09/12 02:50:32;;;;;;;19.85;10.82;;;13.90;99.90;;;;;;5052124;28;20031;-74
2021/09/12 02:52:58;;;;;;;9.75;8.85;;;14.00;99.90;;;;;;5053437;28;20052;-74
2021/09/12 02:55:24;;;;;;;9.57;8.77;;;14.00;99.90;;;;;;5051414;28;20024;-74
2021/09/12 02:57:49;;;;;;;10.40;8.45;;;14.10;99.90;;;;;;5052223;28;20025;-74
2021/09/12 03:00:16;;;;;;;23.38;8.90;;;14.00;99.90;;;;;;5053205;28;20029;-75
2021/09/12 03:02:41;;;;;;;9.85;8.90;;;14.10;99.90;;;;;;5053188;28;20028;-73
2021/09/12 03:05:07;;;;;;;50.47;8.45;;;14.10;99.90;;;;;;5052916;28;20017;-73
2021/09/12 03:07:33;;;;;;;10.95;7.18;;;14.10;99.90;;;;;;5062875;28;20085;-77
2021/09/12 03:09:58;;;;;;;14.95;7.60;;;14.00;99.90;;;;;;5073009;28;20645;-74
2021/09/12 03:12:24;;;;;;;9.32;8.13;;;14.00;99.90;;;;;;5053413;28;20368;-75
2021/09/12 03:14:50;;;;;;;9.07;8.25;;;14.10;99.90;;;;;;5052613;28;20391;-75
2021/09/12 03:17:16;;;;;;;9.77;8.88;;;14.20;99.90;;;;;;5051773;28;20060;-74
2021/09/12 03:19:43;;;;;;;9.15;8.00;;;14.30;99.90;;;;;;5051193;28;20115;-74
2021/09/12 03:22:08;;;;;;;9.73;8.48;;;14.20;99.90;;;;;;5052638;28;20021;-75
2021/09/12 03:24:34;;;;;;;8.98;8.18;;;14.20;99.90;;;;;;5050664;28;20550;-74
2021/09/12 03:27:00;;;;;;;12.57;8.60;;;14.00;99.90;;;;;;5052690;28;20099;-74
2021/09/12 03:29:25;;;;;;;11.27;7.95;;;13.90;99.90;;;;;;5052539;28;20055;-73
2021/09/12 03:31:51;;;;;;;9.60;8.50;;;13.70;99.90;;;;;;5052347;28;20053;-74
2021/09/12 03:34:17;;;;;;;8.80;8.02;;;13.80;99.90;;;;;;5050779;28;20025;-74
2021/09/12 03:36:43;;;;;;;19.80;9.75;;;13.80;99.90;;;;;;5052372;28;20021;-74
2021/09/12 03:39:08;;;;;;;20.73;8.85;;;13.80;99.90;;;;;;5050543;28;20075;-75
2021/09/12 03:41:34;;;;;;;12.15;9.15;;;13.90;99.90;;;;;;5050575;28;20110;-73
2021/09/12 03:44:00;;;;;;;9.77;7.53;;;13.80;99.90;;;;;;5052433;28;20028;-74
2021/09/12 03:46:25;;;;;;;11.95;8.75;;;13.80;99.90;;;;;;5051757;28;20135;-75
2021/09/12 03:48:51;;;;;;;10.68;8.38;;;13.70;99.90;;;;;;5052002;28;20103;-74
2021/09/12 03:51:17;;;;;;;9.43;8.43;;;13.60;99.90;;;;;;5052156;28;20098;-74
2021/09/12 03:53:42;;;;;;;9.10;7.43;;;13.50;99.90;;;;;;5052066;28;20143;-74
2021/09/12 03:56:08;;;;;;;18.63;8.98;;;13.40;99.90;;;;;;5050255;28;20028;-74
2021/09/12 03:58:34;;;;;;;14.77;8.98;;;13.30;99.90;;;;;;5051969;28;20438;-73
2021/09/12 04:00:59;;;;;;;15.98;9.32;;;13.10;99.90;;;;;;5050955;28;20094;-72
2021/09/12 04:03:25;;;;;;;10.20;9.20;;;13.10;99.90;;;;;;5050409;28;20025;-73
2021/09/12 04:05:51;;;;;;;21.25;10.00;;;13.30;99.90;;;;;;5050264;28;20043;-74
2021/09/12 04:08:16;;;;;;;20.95;10.05;;;13.20;99.90;;;;;;5050423;28;20454;-74
2021/09/12 04:10:42;;;;;;;17.42;10.23;;;13.30;99.90;;;;;;5052011;28;20048;-73
2021/09/12 04:13:08;;;;;;;19.13;10.07;;;13.20;99.90;;;;;;5051530;28;20029;-75
2021/09/12 04:15:34;;;;;;;22.77;10.70;;;13.10;99.90;;;;;;5050297;28;20487;-74
2021/09/12 04:17:59;;;;;;;15.75;10.07;;;13.10;99.90;;;;;;5052379;28;20060;-73
2021/09/12 04:20:25;;;;;;;17.95;10.38;;;13.00;99.90;;;;;;5052187;28;20033;-74
2021/09/12 04:22:51;;;;;;;15.95;11.00;;;13.00;99.90;;;;;;5052812;28;20391;-73
2021/09/12 04:25:16;;;;;;;21.63;9.68;;;12.90;99.90;;;;;;5049971;28;20021;-75
2021/09/12 04:27:42;;;;;;;11.32;8.13;;;13.00;99.90;;;;;;5052442;28;20383;-75
2021/09/12 04:30:09;;;;;;;11.80;8.45;;;12.90;99.90;;;;;;5052290;28;20099;-76
2021/09/12 04:32:35;;;;;;;11.20;9.30;;;12.90;99.90;;;;;;5052368;28;20384;-74
2021/09/12 04:35:01;;;;;;;12.63;9.60;;;12.90;99.90;;;;;;5051517;28;20368;-74
2021/09/12 04:37:26;;;;;;;11.50;8.63;;;13.00;99.90;;;;;;5052281;28;20032;-76
2021/09/12 04:39:52;;;;;;;31.80;9.30;;;12.80;99.90;;;;;;5051867;28;20044;-75
2021/09/12 04:42:18;;;;;;;23.80;10.35;;;12.80;99.90;;;;;;5050773;28;20053;-76
2021/09/12 04:44:43;;;;;;;27.38;11.05;;;12.80;99.90;;;;;;5051348;28;20060;-72
2021/09/12 04:47:09;;;;;;;28.52;10.73;;;12.80;99.90;;;;;;5051878;28;20471;-73
2021/09/12 04:49:35;;;;;;;44.13;11.15;;;12.90;99.90;;;;;;5052284;28;20147;-75
2021/09/12 04:52:01;;;;;;;14.40;10.15;;;12.70;99.90;;;;;;5051994;28;20017;-73
2021/09/12 04:54:26;;;;;;;20.92;10.55;;;12.60;99.90;;;;;;5054860;28;20025;-75
2021/09/12 04:56:52;;;;;;;52.97;11.68;;;12.60;99.90;;;;;;5056043;28;20025;-76
2021/09/12 04:59:17;;;;;;;46.58;9.75;;;12.60;99.90;;;;;;5056535;28;20021;-72
2021/09/12 05:01:43;;;;;;;22.15;9.77;;;12.50;99.90;;;;;;5056031;28;20479;-73
2021/09/12 05:04:09;;;;;;;28.77;9.55;;;12.50;99.90;;;;;;5055794;28;20040;-74
2021/09/12 05:06:34;;;;;;;25.48;10.05;;;12.40;99.90;;;;;;5055383;28;20123;-75
2021/09/12 05:09:00;;;;;;;11.05;8.82;;;12.40;99.90;;;;;;5054505;28;20073;-74
2021/09/12 05:11:26;;;;;;;26.58;9.43;;;12.40;99.90;;;;;;5055910;28;20044;-75
2021/09/12 05:13:51;;;;;;;15.20;9.52;;;12.30;99.90;;;;;;5055798;28;20036;-74
2021/09/12 05:16:17;;;;;;;8.88;8.07;;;12.30;99.90;;;;;;5051753;28;20895;-78
2021/09/12 05:18:43;;;;;;;36.72;9.95;;;12.40;99.90;;;;;;5040183;28;20082;-77
2021/09/12 05:21:09;;;;;;;29.45;10.82;;;12.50;99.90;;;;;;5034688;28;20105;-80
2021/09/12 05:23:35;;;;;;;10.40;9.25;;;12.70;99.90;;;;;;5044290;28;20029;-78
2021/09/12 05:26:00;;;;;;;40.17;10.57;;;12.70;99.90;;;;;;5054961;28;20029;-78
2021/09/12 05:28:26;;;;;;;10.25;9.18;;;12.80;99.90;;;;;;5056022;28;20425;-79
2021/09/12 05:30:52;;;;;;;36.42;10.65;;;12.90;99.90;;;;;;5057083;28;20025;-78
2021/09/12 05:33:18;;;;;;;25.40;8.55;;;13.00;99.90;;;;;;5052906;28;20044;-77
2021/09/12 05:35:44;;;;;;;14.35;8.13;;;13.00;99.90;;;;;;5035121;28;20025;-77
2021/09/12 05:38:09;;;;;;;13.77;7.90;;;12.90;99.90;;;;;;5034777;28;20391;-78
2021/09/12 05:40:35;;;;;;;15.77;6.65;;;13.00;99.90;;;;;;5034311;28;20025;-77
2021/09/12 05:43:01;;;;;;;23.30;5.55;;;12.80;99.90;;;;;;5035424;28;20418;-77
2021/09/12 05:45:27;;;;;;;6.20;5.53;;;12.70;99.90;;;;;;5051951;28;20593;-78
2021/09/12 05:47:53;;;;;;;6.57;5.95;;;12.80;99.90;;;;;;5056363;28;20111;-77
2021/09/12 05:50:18;;;;;;;6.00;5.50;;;12.90;99.90;;;;;;5054236;28;20101;-78
2021/09/12 05:52:44;;;;;;;5.88;5.20;;;13.00;99.90;;;;;;5054647;28;20403;-77
2021/09/12 05:55:10;;;;;;;9.93;4.63;;;13.10;99.90;;;;;;5054085;28;20025;-78
2021/09/12 05:57:36;;;;;;;3.65;3.45;;;13.10;99.90;;;;;;5054666;28;20108;-78
2021/09/12 06:00:04;;;;;;;3.92;3.63;;;13.10;99.90;;;;;;5054238;28;20067;-77
2021/09/12 06:02:29;;;;;;;3.97;3.70;;;13.20;99.90;;;;;;5054270;28;20479;-78
2021/09/12 06:04:55;;;;;;;3.78;3.47;;;13.20;99.90;;;;;;5051078;28;20037;-77
2021/09/12 06:07:21;;;;;;;3.90;3.60;;;13.10;99.90;;;;;;5052307;28;20499;-76
2021/09/12 06:09:46;;;;;;;3.33;3.13;;;13.00;99.90;;;;;;5054043;28;20033;-77
2021/09/12 06:12:12;;;;;;;4.00;3.70;;;12.80;99.90;;;;;;5053115;28;20391;-78
2021/09/12 06:14:38;;;;;;;4.40;3.83;;;12.80;99.90;;;;;;5050351;28;20482;-77
2021/09/12 06:17:06;;;;;;;9.20;3.97;;;12.70;99.90;;;;;;5035310;28;20025;-77
2021/09/12 06:19:34;;;;;;;8.30;4.45;;;12.70;99.90;;;;;;5035446;28;20026;-78
2021/09/12 06:22:00;;;;;;;4.97;4.57;;;12.70;99.90;;;;;;5034690;28;20205;-78
2021/09/12 06:24:26;;;;;;;5.90;5.00;;;12.70;99.90;;;;;;5033959;28;20065;-76
2021/09/12 06:26:51;;;;;;;4.82;4.43;;;13.00;99.90;;;;;;5034325;28;20021;-77
2021/09/12 06:29:17;;;;;;;4.40;4.10;;;13.00;99.90;;;;;;5033730;28;20088;-79
2021/09/12 06:31:43;;;;;;;8.90;4.30;;;13.10;99.90;;;;;;5033954;28;20026;-78
2021/09/12 06:34:08;;;;;;;3.97;3.67;;;13.30;99.90;;;;;;5033742;28;20036;-78
2021/09/12 06:36:34;;;;;;;3.75;3.55;;;13.50;99.90;;;;;;5032061;28;20545;-76
2021/09/12 06:39:00;;;;;;;4.30;4.00;;;13.50;99.90;;;;;;5033316;28;20045;-77
2021/09/12 06:41:25;;;;;;;3.97;3.78;;;13.40;99.90;;;;;;5033715;28;20033;-77
2021/09/12 06:43:51;;;;;;;3.58;3.38;;;13.50;99.90;;;;;;5035564;28;20503;-77
2021/09/12 06:46:16;;;;;;;3.45;3.25;;;13.40;99.90;;;;;;5053354;28;20498;-78
2021/09/12 06:48:42;;;;;;;3.65;3.35;;;13.40;99.90;;;;;;5053283;28;20103;-77
2021/09/12 06:51:11;;;;;;;3.20;3.00;;;13.20;99.90;;;;;;5052757;28;20490;-76
2021/09/12 06:53:36;;;;;;;2.17;2.08;;;13.20;99.90;;;;;;5053259;28;20059;-77
2021/09/12 06:56:02;;;;;;;2.78;2.58;;;13.00;99.90;;;;;;5052987;28;20106;-79
2021/09/12 06:58:28;;;;;;;2.60;2.42;;;13.00;99.90;;;;;;5054175;28;20029;-78
2021/09/12 07:00:53;;;;;;;7.07;2.38;;;12.80;99.90;;;;;;5053144;28;20029;-78
2021/09/12 07:03:19;;;;;;;2.95;2.75;;;12.90;99.90;;;;;;5052101;28;20024;-76
2021/09/12 07:05:45;;;;;;;2.85;2.65;;;13.10;99.90;;;;;;5051689;28;20029;-76
2021/09/12 07:08:10;;;;;;;5.78;2.75;;;13.40;99.90;;;;;;5033486;28;20177;-77
2021/09/12 07:10:36;;;;;;;2.50;2.30;;;13.10;99.90;;;;;;5034398;28;20025;-78
2021/09/12 07:13:02;;;;;;;2.97;2.78;;;13.00;99.90;;;;;;5054746;28;20039;-79
2021/09/12 07:15:28;;;;;;;2.75;2.55;;;13.20;99.90;;;;;;5055132;28;20028;-78
2021/09/12 07:17:53;;;;;;;2.50;2.33;;;13.40;99.90;;;;;;5052617;28;20060;-78
2021/09/12 07:20:19;;;;;;;2.55;2.35;;;13.80;99.90;;;;;;5054927;28;20067;-79
2021/09/12 07:22:46;;;;;;;2.60;2.50;;;13.80;99.90;;;;;;5052990;28;20021;-79
2021/09/12 07:25:12;;;;;;;2.47;2.28;;;13.80;99.90;;;;;;5053363;28;20029;-82
2021/09/12 07:27:38;;;;;;;2.40;2.30;;;14.00;99.90;;;;;;5053735;28;20031;-81
2021/09/12 07:30:05;;;;;;;2.17;2.08;;;14.00;99.90;;;;;;5050964;28;20120;-76
2021/09/12 07:32:30;;;;;;;2.67;2.53;;;14.00;99.90;;;;;;5054005;28;20024;-80
2021/09/12 07:34:56;;;;;;;2.40;2.30;;;13.80;99.90;;;;;;5051759;28;20499;-76
2021/09/12 07:37:21;;;;;;;2.00;1.90;;;14.10;99.90;;;;;;5052981;28;20104;-78
2021/09/12 07:39:47;;;;;;;2.50;2.40;;;14.20;99.90;;;;;;5054114;28;20053;-80
2021/09/12 07:42:13;;;;;;;2.60;2.40;;;14.60;99.90;;;;;;5071836;28;20056;-78
2021/09/12 07:44:38;;;;;;;3.15;2.47;;;14.50;99.90;;;;;;5059336;28;20108;-77
2021/09/12 07:47:04;;;;;;;2.00;1.90;;;14.60;99.90;;;;;;5052864;28;20021;-78
2021/09/12 07:49:30;;;;;;;2.80;2.60;;;14.70;99.90;;;;;;5051277;28;20047;-79
2021/09/12 07:51:55;;;;;;;2.65;2.55;;;14.40;99.90;;;;;;5043554;28;20422;-77
2021/09/12 07:54:21;;;;;;;2.28;2.10;;;14.50;99.90;;;;;;5050851;28;20025;-77
2021/09/12 07:56:47;;;;;;;2.10;2.00;;;15.00;99.90;;;;;;5062894;28;20063;-77
2021/09/12 07:59:12;;;;;;;2.13;2.03;;;15.10;99.90;;;;;;5053959;28;20063;-77
2021/09/12 08:01:38;;;;;;;2.17;2.08;;;15.10;99.90;;;;;;5052734;28;20041;-76
2021/09/12 08:04:04;;;;;;;2.30;2.10;;;14.90;99.90;;;;;;5052006;28;20094;-76
2021/09/12 08:06:30;;;;;;;5.28;1.85;;;15.20;99.90;;;;;;5051649;28;20446;-78
2021/09/12 08:08:55;;;;;;;2.00;1.90;;;15.40;99.90;;;;;;5052307;28;20025;-79
2021/09/12 08:11:21;;;;;;;2.65;1.50;;;15.80;99.90;;;;;;5059972;28;20039;-78
2021/09/12 08:13:46;;;;;;;1.63;1.52;;;16.30;99.90;;;;;;5046282;28;20029;-78
2021/09/12 08:16:12;;;;;;;2.65;1.30;;;16.60;99.90;;;;;;5051782;28;20029;-79
2021/09/12 08:18:38;;;;;;;1.83;1.73;;;16.80;99.90;;;;;;5054346;28;20035;-78
2021/09/12 08:21:04;;;;;;;1.73;1.63;;;17.10;99.90;;;;;;5052604;28;20048;-78
2021/09/12 08:23:29;;;;;;;1.88;1.77;;;17.30;99.90;;;;;;5052455;28;20584;-78
2021/09/12 08:25:55;;;;;;;1.98;1.77;;;17.80;99.90;;;;;;5046964;28;20053;-80
2021/09/12 08:28:21;;;;;;;1.77;1.67;;;17.70;99.90;;;;;;5046472;28;20487;-78
2021/09/12 08:30:47;;;;;;;1.75;1.65;;;17.90;99.90;;;;;;5044319;28;20026;-79
2021/09/12 08:33:15;;;;;;;1.95;1.85;;;17.20;99.90;;;;;;5036607;28;20024;-79
2021/09/12 08:35:42;;;;;;;1.75;1.65;;;17.50;99.90;;;;;;5052596;28;20017;-78
2021/09/12 08:38:08;;;;;;;1.90;1.80;;;17.90;99.90;;;;;;5036405;28;20040;-78
2021/09/12 08:40:34;;;;;;;3.88;1.92;;;17.70;99.90;;;;;;5032194;28;20043;-79
2021/09/12 08:43:01;;;;;;;2.47;2.20;;;17.90;99.90;;;;;;5033272;28;20026;-78
2021/09/12 08:45:28;;;;;;;1.80;1.70;;;18.50;99.90;;;;;;5031852;28;20028;-78
2021/09/12 08:47:54;;;;;;;1.50;1.40;;;19.00;99.90;;;;;;5033116;28;20043;-79
2021/09/12 08:50:21;;;;;;;1.98;1.80;;;19.60;99.90;;;;;;5032288;28;20026;-78
2021/09/12 08:52:46;;;;;;;1.80;1.70;;;19.20;99.90;;;;;;5032044;28;20037;-78
2021/09/12 08:55:13;;;;;;;2.20;1.52;;;19.50;99.90;;;;;;5044567;28;20028;-79
2021/09/12 08:57:50;;;;;;;1.90;1.80;;;20.20;99.90;;;;;;5035732;28;20026;-77
2021/09/12 09:00:21;;;;;;;1.80;1.67;;;20.80;99.90;;;;;;5031365;28;20033;-77
2021/09/12 09:02:46;;;;;;;4.38;1.83;;;20.90;99.90;;;;;;5031309;28;20036;-77
2021/09/12 09:05:12;;;;;;;2.00;1.90;;;21.20;99.90;;;;;;5030483;28;20018;-78
2021/09/12 09:07:38;;;;;;;3.40;1.92;;;20.90;99.90;;;;;;5031158;28;20091;-78
2021/09/12 09:10:18;;;;;;;2.28;2.10;;;20.30;99.90;;;;;;5029763;28;20033;-79
2021/09/12 09:12:43;;;;;;;2.63;1.67;;;20.70;99.90;;;;;;5044892;28;20115;-78
2021/09/12 09:15:20;;;;;;;1.98;1.85;;;21.00;99.90;;;;;;5051814;28;20390;-79
2021/09/12 09:17:51;;;;;;;1.75;1.65;;;20.90;99.90;;;;;;5051917;28;20042;-77
2021/09/12 09:20:27;;;;;;;1.88;1.67;;;21.30;99.90;;;;;;5051859;28;20075;-78
2021/09/12 09:22:55;;;;;;;1.85;1.75;;;21.80;99.90;;;;;;5051374;28;20534;-79
2021/09/12 09:25:22;;;;;;;2.42;2.00;;;21.80;99.90;;;;;;5034289;28;20125;-77
2021/09/12 09:28:06;;;;;;;1.90;1.80;;;21.40;99.90;;;;;;5031223;28;20037;-79
2021/09/12 09:30:47;;;;;;;2.08;1.98;;;21.10;99.90;;;;;;5030939;28;20025;-79
2021/09/12 09:33:14;;;;;;;1.88;1.77;;;20.90;99.90;;;;;;5030107;28;20029;-77
2021/09/12 09:35:50;;;;;;;3.83;1.80;;;21.10;99.90;;;;;;5030294;28;20018;-78
2021/09/12 09:38:16;;;;;;;4.30;2.00;;;22.10;99.90;;;;;;5030698;28;20053;-77
2021/09/12 09:41:01;;;;;;;2.38;2.28;;;22.70;99.90;;;;;;5032808;28;20064;-77
2021/09/12 09:43:47;;;;;;;2.22;1.73;;;23.10;99.90;;;;;;5043655;28;21187;-77
2021/09/12 09:46:43;;;;;;;2.20;2.00;;;23.90;99.90;;;;;;5063776;28;20072;-72
2021/09/12 09:49:19;;;;;;;2.08;1.48;;;24.60;99.90;;;;;;5033359;28;20024;-73
2021/09/12 09:51:51;;;;;;;2.13;1.98;;;25.10;99.90;;;;;;5034513;28;20029;-72
2021/09/12 09:54:17;;;;;;;2.42;2.10;;;25.90;99.90;;;;;;5039576;28;20035;-74
2021/09/12 09:56:46;;;;;;;1.90;1.80;;;25.00;99.90;;;;;;5054268;28;20033;-72
2021/09/12 09:59:16;;;;;;;2.17;1.98;;;24.50;99.90;;;;;;5054014;28;20017;-73
2021/09/12 10:01:49;;;;;;;1.50;1.42;;;24.50;99.90;;;;;;5054185;28;20119;-73
2021/09/12 10:04:16;;;;;;;2.35;2.00;;;25.40;99.90;;;;;;5053581;28;20017;-74
2021/09/12 10:06:43;;;;;;;2.28;2.08;;;25.50;99.90;;;;;;5054166;28;20028;-73
2021/09/12 10:09:13;;;;;;;2.15;2.05;;;25.60;99.90;;;;;;5053840;28;20023;-73
2021/09/12 10:11:48;;;;;;;2.05;1.88;;;26.00;99.90;;;;;;5054248;28;20054;-71
2021/09/12 10:14:18;;;;;;;2.88;1.83;;;25.60;99.90;;;;;;5053715;28;20024;-72
2021/09/12 10:16:47;;;;;;;2.38;1.40;;;25.70;99.90;;;;;;5047750;28;20484;-78
2021/09/12 10:19:34;;;;;;;1.08;1.08;;;26.70;99.80;;;;;;5052606;28;20025;-78
2021/09/12 10:22:01;;;;;;;2.00;1.20;;;26.50;98.50;;;;;;5053172;28;20031;-79
2021/09/12 10:24:27;;;;;;;4.20;1.10;;;26.60;98.40;;;;;;5052620;28;20029;-80
2021/09/12 10:26:53;;;;;;;2.25;1.50;;;26.70;98.60;;;;;;5054224;28;20029;-79
2021/09/12 10:29:43;;;;;;;1.10;1.10;;;26.90;98.20;;;;;;5054623;28;20025;-81
2021/09/12 10:32:34;;;;;;;1.83;1.48;;;28.00;97.90;;;;;;5057379;28;20025;-81
2021/09/12 10:35:26;;;;;;;2.70;1.30;;;28.20;97.60;;;;;;5055082;28;20490;-80
2021/09/12 10:37:59;;;;;;;0.88;0.88;;;27.80;96.60;;;;;;5050848;28;20380;-77
2021/09/12 10:40:48;;;;;;;1.30;1.20;;;28.60;95.60;;;;;;5053778;28;20055;-81
2021/09/12 10:43:25;;;;;;;1.77;1.40;;;28.90;94.50;;;;;;5056005;28;20448;-80
2021/09/12 10:46:09;;;;;;;2.80;1.30;;;28.10;93.10;;;;;;5054601;28;20017;-80
2021/09/12 10:48:43;;;;;;;2.08;1.25;;;27.30;96.40;;;;;;5056524;28;20029;-82
2021/09/12 10:51:18;;;;;;;2.72;1.88;;;27.70;95.70;;;;;;5055000;28;20029;-78
2021/09/12 10:53:44;;;;;;;2.00;1.15;;;28.50;94.50;;;;;;5055414;28;20032;-80
2021/09/12 10:56:19;;;;;;;1.23;0.98;;;28.90;93.70;;;;;;5054280;28;20032;-77
2021/09/12 10:58:53;;;;;;;2.95;1.15;;;28.90;92.80;;;;;;5054789;28;20025;-77
2021/09/12 11:01:32;;;;;;;3.03;1.30;;;29.80;93.70;;;;;;5064064;28;20116;-81
2021/09/12 11:04:00;;;;;;;1.80;1.20;;;29.80;91.40;;;;;;5059554;28;20021;-80
2021/09/12 11:06:27;;;;;;;1.20;1.10;;;30.50;91.80;;;;;;5062056;28;20025;-82
2021/09/12 11:08:54;;;;;;;3.63;0.90;;;31.70;90.80;;;;;;5060574;28;20071;-80
2021/09/12 11:11:22;;;;;;;1.13;0.80;;;32.00;87.90;;;;;;5064780;28;20037;-80
2021/09/12 11:13:50;;;;;;;1.85;0.93;;;31.70;87.60;;;;;;5055337;28;20033;-81
2021/09/12 11:16:19;;;;;;;1.15;1.05;;;30.80;88.80;;;;;;5056568;28;20025;-80
2021/09/12 11:18:47;;;;;;;1.20;1.10;;;31.10;89.20;;;;;;5060068;28;20056;-80
2021/09/12 11:21:34;;;;;;;1.65;0.98;;;32.60;88.00;;;;;;5063706;28;20036;-80
2021/09/12 11:24:27;;;;;;;1.48;0.90;;;33.00;83.20;;;;;;5053616;28;20025;-80
2021/09/12 11:27:06;;;;;;;1.95;1.20;;;32.40;84.30;;;;;;5053086;28;20017;-79
2021/09/12 11:29:37;;;;;;;1.65;1.20;;;32.10;80.80;;;;;;5054999;28;20029;-79
2021/09/12 11:32:04;;;;;;;1.42;1.10;;;31.30;83.10;;;;;;5053543;28;20082;-80
2021/09/12 11:34:31;;;;;;;1.38;1.08;;;30.90;86.20;;;;;;5052722;28;20057;-79
2021/09/12 11:37:00;;;;;;;1.85;1.17;;;31.10;82.30;;;;;;5054129;28;20033;-80
2021/09/12 11:39:29;;;;;;;1.25;1.00;;;29.40;87.30;;;;;;5056891;28;20040;-81
2021/09/12 11:42:00;;;;;;;1.08;0.88;;;29.10;89.30;;;;;;5053035;28;20028;-80
2021/09/12 11:44:49;;;;;;;1.10;0.98;;;29.00;90.40;;;;;;5055864;28;20380;-82
2021/09/12 11:47:17;;;;;;;1.65;1.00;;;29.60;88.40;;;;;;5057737;28;20021;-83
2021/09/12 11:49:44;;;;;;;2.08;1.35;;;30.20;87.20;;;;;;5056083;28;20495;-81
2021/09/12 11:52:10;;;;;;;1.65;1.10;;;29.90;85.20;;;;;;5059423;28;20024;-82
2021/09/12 11:54:37;;;;;;;1.38;1.10;;;28.70;87.10;;;;;;5057840;28;20035;-82
2021/09/12 11:57:06;;;;;;;1.23;1.02;;;28.80;89.50;;;;;;5055939;28;20045;-82
2021/09/12 11:59:37;;;;;;;2.67;1.10;;;28.30;91.00;;;;;;5060115;28;20063;-83
2021/09/12 12:02:03;;;;;;;4.68;1.10;;;29.00;91.50;;;;;;5057309;28;20049;-81
2021/09/12 12:04:30;;;;;;;1.25;1.05;;;29.50;88.80;;;;;;5056231;28;20029;-81
2021/09/12 12:06:58;;;;;;;1.23;1.13;;;30.20;90.80;;;;;;5056505;28;20025;-81
2021/09/12 12:09:31;;;;;;;1.00;1.00;;;31.20;88.40;;;;;;5055779;28;20571;-81
2021/09/12 12:12:25;;;;;;;2.33;1.30;;;30.20;86.30;;;;;;5037795;28;20036;-81
2021/09/12 12:15:00;;;;;;;1.10;1.10;;;29.70;88.40;;;;;;5033900;28;20118;-82
2021/09/12 12:17:27;;;;;;;1.33;1.20;;;29.30;90.40;;;;;;5034366;28;20025;-81
2021/09/12 12:19:57;;;;;;;2.03;1.20;;;29.80;87.30;;;;;;5034647;28;20040;-82
2021/09/12 12:22:37;;;;;;;1.42;1.33;;;28.80;89.20;;;;;;5034648;28;20021;-82
2021/09/12 12:25:04;;;;;;;1.83;1.10;;;28.10;90.60;;;;;;5066109;28;20020;-82
2021/09/12 12:27:38;;;;;;;1.33;1.05;;;28.00;92.70;;;;;;5065587;28;20027;-81
2021/09/12 12:30:05;;;;;;;1.58;1.20;;;27.60;91.30;;;;;;5062383;28;20398;-82
2021/09/12 12:32:31;;;;;;;5.32;1.55;;;27.60;92.10;;;;;;5064091;28;20025;-81
2021/09/12 12:35:01;;;;;;;2.00;1.15;;;28.30;91.70;;;;;;5065917;28;20025;-81
2021/09/12 12:37:32;;;;;;;1.77;1.30;;;27.90;92.00;;;;;;5055353;28;20028;-82
2021/09/12 12:40:05;;;;;;;2.70;1.75;;;28.50;92.10;;;;;;5050076;28;20034;-82
2021/09/12 12:42:45;;;;;;;1.70;1.20;;;28.20;91.80;;;;;;5043672;28;20026;-82